createdAt,value
2023-04-24T00:00:13.281Z,1.30
2023-04-24T00:02:41.449Z,1.17
2023-04-24T00:05:10.937Z,1.30
2023-04-24T00:07:38.689Z,1.50
2023-04-24T00:10:07.251Z,1.13
2023-04-24T00:12:35.297Z,1.20
2023-04-24T00:15:03.100Z,1.10
2023-04-24T00:17:31.507Z,1.30
2023-04-24T00:20:00.162Z,1.20
2023-04-24T00:22:30.009Z,1.30
2023-04-24T00:24:57.787Z,1.40
2023-04-24T00:27:25.753Z,1.30
2023-04-24T00:29:53.444Z,1.20
2023-04-24T00:32:21.233Z,1.20
2023-04-24T00:34:49.073Z,1.30
2023-04-24T00:37:17.177Z,1.10
2023-04-24T00:39:46.202Z,2.63
2023-04-24T00:42:14.064Z,1.30
2023-04-24T00:44:41.881Z,1.30
2023-04-24T00:47:09.707Z,1.70
2023-04-24T00:49:37.451Z,1.27
2023-04-24T00:52:08.445Z,1.50
2023-04-24T00:54:36.103Z,1.27
2023-04-24T00:57:05.977Z,1.60
2023-04-24T00:59:34.164Z,1.23
2023-04-24T01:02:01.950Z,1.20
2023-04-24T01:04:30.519Z,1.10
2023-04-24T01:06:58.959Z,1.10
2023-04-24T01:09:27.157Z,1.03
2023-04-24T01:11:54.984Z,1.07
2023-04-24T01:14:25.677Z,1.30
2023-04-24T01:16:53.210Z,1.07
2023-04-24T01:19:22.031Z,1.90
2023-04-24T01:21:52.823Z,1.30
2023-04-24T01:24:23.266Z,1.43
2023-04-24T01:26:50.915Z,1.27
2023-04-24T01:29:18.517Z,1.10
2023-04-24T01:31:46.613Z,1.20
2023-04-24T01:34:18.097Z,1.20
2023-04-24T01:36:47.822Z,1.13
2023-04-24T01:39:16.609Z,1.00
2023-04-24T01:41:45.590Z,1.40
2023-04-24T01:44:13.653Z,1.10
2023-04-24T01:46:41.439Z,1.47
2023-04-24T01:49:09.112Z,1.07
2023-04-24T01:51:36.894Z,1.43
2023-04-24T01:54:06.264Z,1.30
2023-04-24T01:56:35.888Z,1.10
2023-04-24T01:59:05.472Z,1.30
2023-04-24T02:01:37.909Z,1.20
2023-04-24T02:04:05.986Z,1.50
2023-04-24T02:06:33.871Z,1.10
2023-04-24T02:09:01.857Z,1.20
2023-04-24T02:11:30.488Z,0.97
2023-04-24T02:13:58.197Z,1.27
2023-04-24T02:16:28.338Z,1.20
2023-04-24T02:18:56.336Z,1.53
2023-04-24T02:21:23.917Z,1.03
2023-04-24T02:23:51.562Z,1.10
2023-04-24T02:26:19.504Z,1.10
2023-04-24T02:28:47.179Z,1.53
2023-04-24T02:31:14.953Z,1.37
2023-04-24T02:33:43.927Z,1.20
2023-04-24T02:36:12.712Z,1.20
2023-04-24T02:38:40.314Z,1.20
2023-04-24T02:41:08.320Z,1.10
2023-04-24T02:43:35.892Z,1.40
2023-04-24T02:46:06.328Z,1.30
2023-04-24T02:48:34.067Z,1.03
2023-04-24T02:51:03.381Z,1.10
2023-04-24T02:53:31.881Z,1.17
2023-04-24T02:55:59.752Z,1.40
2023-04-24T02:58:27.330Z,1.20
2023-04-24T03:00:56.248Z,1.10
2023-04-24T03:03:24.808Z,1.17
2023-04-24T03:05:52.701Z,1.03
2023-04-24T03:08:21.729Z,1.30
2023-04-24T03:10:49.345Z,1.30
2023-04-24T03:13:17.580Z,1.20
2023-04-24T03:15:45.950Z,1.30
2023-04-24T03:18:13.587Z,1.17
2023-04-24T03:20:41.333Z,1.10
2023-04-24T03:23:09.049Z,1.00
2023-04-24T03:25:38.009Z,1.00
2023-04-24T03:28:05.751Z,0.90
2023-04-24T03:30:33.368Z,1.07
2023-04-24T03:33:01.251Z,1.30
2023-04-24T03:35:28.960Z,1.77
2023-04-24T03:37:56.640Z,1.10
2023-04-24T03:40:24.342Z,1.10
2023-04-24T03:42:53.297Z,1.20
2023-04-24T03:45:21.141Z,0.90
2023-04-24T03:47:48.806Z,1.10
2023-04-24T03:50:16.550Z,1.00
2023-04-24T03:52:44.130Z,1.20
2023-04-24T03:55:14.318Z,1.10
2023-04-24T03:57:42.221Z,1.10
2023-04-24T04:00:12.862Z,1.47
2023-04-24T04:02:40.572Z,1.57
2023-04-24T04:05:09.008Z,1.83
2023-04-24T04:07:36.710Z,1.20
2023-04-24T04:10:04.737Z,1.10
2023-04-24T04:12:32.364Z,1.40
2023-04-24T04:15:00.208Z,1.30
2023-04-24T04:17:29.184Z,1.00
2023-04-24T04:19:58.386Z,1.20
2023-04-24T04:22:25.945Z,1.00
2023-04-24T04:24:53.909Z,1.13
2023-04-24T04:27:22.373Z,1.50
2023-04-24T04:29:49.960Z,1.00
2023-04-24T04:32:18.007Z,1.17
2023-04-24T04:34:47.339Z,1.10
2023-04-24T04:37:15.604Z,1.10
2023-04-24T04:39:43.458Z,1.27
2023-04-24T04:42:11.455Z,1.27
2023-04-24T04:44:40.800Z,1.30
2023-04-24T04:47:09.714Z,1.20
2023-04-24T04:49:37.944Z,1.17
2023-04-24T04:52:06.975Z,1.20
2023-04-24T04:54:34.717Z,1.23
2023-04-24T04:57:04.322Z,1.30
2023-04-24T04:59:32.014Z,1.30
2023-04-24T05:01:59.569Z,1.27
2023-04-24T05:04:27.708Z,1.40
2023-04-24T05:06:55.484Z,1.43
2023-04-24T05:09:24.781Z,1.80
2023-04-24T05:11:52.546Z,1.33
2023-04-24T05:14:20.387Z,1.60
2023-04-24T05:16:48.161Z,1.33
2023-04-24T05:19:15.880Z,1.20
2023-04-24T05:21:43.554Z,1.57
2023-04-24T05:24:11.160Z,1.23
2023-04-24T05:26:40.092Z,1.20
2023-04-24T05:29:07.992Z,1.50
2023-04-24T05:31:35.788Z,1.37
2023-04-24T05:34:03.529Z,2.07
2023-04-24T05:36:31.839Z,1.43
2023-04-24T05:38:59.571Z,1.63
2023-04-24T05:41:27.284Z,1.47
2023-04-24T05:43:56.321Z,1.57
2023-04-24T05:46:24.171Z,1.60
2023-04-24T05:48:51.982Z,1.73
2023-04-24T05:51:19.770Z,1.80
2023-04-24T05:53:47.330Z,1.70
2023-04-24T05:56:15.109Z,2.00
2023-04-24T05:58:42.730Z,2.03
2023-04-24T06:01:11.872Z,1.87
2023-04-24T06:03:40.350Z,2.00
2023-04-24T06:06:08.380Z,2.00
2023-04-24T06:08:36.226Z,1.90
2023-04-24T06:11:04.751Z,1.50
2023-04-24T06:13:32.545Z,1.60
2023-04-24T06:16:00.223Z,1.70
2023-04-24T06:18:29.342Z,1.77
2023-04-24T06:20:57.082Z,1.70
2023-04-24T06:23:41.105Z,1.60
2023-04-24T06:26:27.661Z,1.90
2023-04-24T06:29:01.728Z,1.93
2023-04-24T06:31:29.740Z,1.67
2023-04-24T06:34:00.977Z,1.80
2023-04-24T06:36:29.283Z,1.97
2023-04-24T06:38:59.849Z,1.87
2023-04-24T06:41:28.373Z,1.60
2023-04-24T06:44:02.101Z,1.97
2023-04-24T06:46:30.802Z,2.20
2023-04-24T06:49:03.719Z,2.20
2023-04-24T06:51:48.676Z,2.07
2023-04-24T06:54:16.596Z,1.87
2023-04-24T06:59:36.951Z,2.00
2023-04-24T07:02:08.661Z,2.17
2023-04-24T07:04:37.779Z,2.27
2023-04-24T07:07:06.733Z,1.87
2023-04-24T07:09:36.303Z,1.93
2023-04-24T07:12:04.068Z,1.97
2023-04-24T07:14:31.748Z,2.30
2023-04-24T07:16:59.718Z,1.87
2023-04-24T07:19:27.365Z,1.77
2023-04-24T07:21:56.851Z,2.30
2023-04-24T07:24:26.710Z,2.10
2023-04-24T07:26:55.518Z,1.80
2023-04-24T07:29:23.154Z,2.17
2023-04-24T07:31:50.956Z,2.50
2023-04-24T07:34:24.572Z,2.10
2023-04-24T07:36:52.467Z,12.20
2023-04-24T07:39:21.977Z,3.90
2023-04-24T07:41:49.612Z,1.87
2023-04-24T07:44:17.328Z,1.70
2023-04-24T07:46:45.234Z,1.77
2023-04-24T07:49:14.088Z,2.00
2023-04-24T07:51:43.144Z,2.10
2023-04-24T07:54:12.759Z,2.00
2023-04-24T07:56:43.988Z,2.10
2023-04-24T07:59:12.824Z,1.60
2023-04-24T08:01:40.557Z,1.83
2023-04-24T08:04:08.844Z,2.13
2023-04-24T08:06:36.980Z,2.40
2023-04-24T08:09:05.377Z,2.43
2023-04-24T08:11:34.781Z,2.20
2023-04-24T08:14:03.811Z,2.33
2023-04-24T08:16:31.586Z,2.10
2023-04-24T08:18:59.560Z,2.00
2023-04-24T08:21:28.168Z,2.63
2023-04-24T08:23:55.858Z,1.93
2023-04-24T08:26:23.527Z,2.30
2023-04-24T08:28:51.566Z,1.80
2023-04-24T08:31:21.568Z,2.40
2023-04-24T08:33:49.621Z,1.77
2023-04-24T08:36:17.263Z,2.10
2023-04-24T08:38:47.333Z,2.20
2023-04-24T08:41:16.834Z,2.30
2023-04-24T08:43:44.844Z,2.50
2023-04-24T08:46:14.814Z,1.90
2023-04-24T08:48:44.352Z,2.00
2023-04-24T08:51:12.343Z,2.20
2023-04-24T08:53:40.286Z,2.30
2023-04-24T08:56:08.759Z,2.23
2023-04-24T08:58:37.690Z,2.03
2023-04-24T09:01:06.643Z,2.70
2023-04-24T09:03:35.422Z,2.20
2023-04-24T09:06:04.858Z,2.03
2023-04-24T09:08:33.113Z,2.00
2023-04-24T09:11:03.341Z,2.40
2023-04-24T09:13:32.127Z,2.03
2023-04-24T09:16:01.284Z,2.20
2023-04-24T09:18:29.169Z,2.20
2023-04-24T09:21:01.159Z,2.20
2023-04-24T09:23:31.434Z,2.00
2023-04-24T09:26:01.031Z,2.10
2023-04-24T09:28:34.216Z,2.30
2023-04-24T09:31:12.508Z,2.60
2023-04-24T09:33:40.286Z,2.03
2023-04-24T09:36:08.177Z,2.03
2023-04-24T09:38:38.620Z,2.03
2023-04-24T09:41:07.890Z,2.10
2023-04-24T09:43:36.445Z,2.17
2023-04-24T09:46:08.360Z,2.20
2023-04-24T09:48:37.268Z,1.80
2023-04-24T09:51:07.953Z,2.17
2023-04-24T09:53:37.033Z,1.83
2023-04-24T09:56:08.781Z,2.10
2023-04-24T09:58:37.042Z,1.73
2023-04-24T10:01:05.501Z,1.90
2023-04-24T10:03:34.290Z,1.70
2023-04-24T10:06:04.439Z,2.27
2023-04-24T10:08:37.718Z,1.80
2023-04-24T10:11:05.748Z,1.90
2023-04-24T10:13:34.817Z,1.70
2023-04-24T10:16:03.032Z,1.93
2023-04-24T10:18:31.843Z,2.00
2023-04-24T10:21:00.292Z,1.93
2023-04-24T10:23:28.061Z,2.00
2023-04-24T10:25:57.804Z,1.70
2023-04-24T10:28:29.035Z,1.50
2023-04-24T10:30:57.431Z,1.80
2023-04-24T10:33:26.124Z,1.37
2023-04-24T10:35:54.689Z,1.70
2023-04-24T10:38:26.898Z,1.53
2023-04-24T10:41:08.534Z,1.80
2023-04-24T10:43:36.252Z,1.80
2023-04-24T10:46:05.793Z,1.77
2023-04-24T10:48:34.356Z,1.60
2023-04-24T10:51:01.969Z,1.97
2023-04-24T10:53:31.310Z,1.93
2023-04-24T10:56:07.350Z,1.70
2023-04-24T10:58:41.174Z,1.90
2023-04-24T11:01:09.280Z,2.07
2023-04-24T11:03:38.481Z,2.00
2023-04-24T11:06:07.711Z,1.73
2023-04-24T11:08:39.981Z,2.10
2023-04-24T11:11:13.607Z,1.70
2023-04-24T11:14:03.892Z,1.43
2023-04-24T11:16:34.725Z,1.23
2023-04-24T11:19:03.568Z,1.50
2023-04-24T11:21:34.354Z,1.40
2023-04-24T11:24:29.883Z,1.40
2023-04-24T11:27:02.522Z,1.40
2023-04-24T11:30:01.893Z,1.30
2023-04-24T11:32:31.367Z,1.10
2023-04-24T11:35:00.394Z,1.80
2023-04-24T11:37:29.792Z,1.40
2023-04-24T11:39:59.471Z,2.00
2023-04-24T11:42:30.463Z,1.77
2023-04-24T11:44:58.354Z,1.50
2023-04-24T11:47:36.898Z,1.67
2023-04-24T11:50:06.780Z,1.13
2023-04-24T11:52:38.541Z,1.20
2023-04-24T11:55:08.732Z,1.20
2023-04-24T11:57:37.874Z,1.30
2023-04-24T12:00:07.782Z,1.07
2023-04-24T12:02:38.211Z,1.57
2023-04-24T12:05:08.921Z,1.20
2023-04-24T12:07:43.691Z,1.40
2023-04-24T12:10:12.054Z,1.70
2023-04-24T12:12:40.922Z,1.50
2023-04-24T12:15:10.313Z,1.47
2023-04-24T12:17:38.828Z,1.83
2023-04-24T12:20:09.640Z,1.40
2023-04-24T12:22:48.231Z,1.10
2023-04-24T12:25:19.074Z,1.40
2023-04-24T12:27:48.974Z,1.47
2023-04-24T12:30:18.479Z,1.20
2023-04-24T12:32:49.267Z,1.23
2023-04-24T12:35:21.867Z,1.10
2023-04-24T12:37:49.761Z,1.50
2023-04-24T12:40:18.839Z,1.60
2023-04-24T12:42:49.666Z,1.40
2023-04-24T12:45:18.342Z,1.60
2023-04-24T12:47:47.404Z,2.20
2023-04-24T12:50:16.455Z,3.60
2023-04-24T12:52:45.221Z,2.00
2023-04-24T12:55:13.269Z,2.03
2023-04-24T12:57:41.888Z,2.07
2023-04-24T13:00:12.117Z,2.20
2023-04-24T13:02:40.360Z,2.00
2023-04-24T13:05:08.627Z,2.27
2023-04-24T13:07:36.349Z,2.43
2023-04-24T13:10:04.121Z,3.20
2023-04-24T13:12:31.882Z,2.77
2023-04-24T13:14:59.794Z,2.43
2023-04-24T13:17:28.920Z,2.67
2023-04-24T13:19:57.375Z,3.13
2023-04-24T13:22:25.995Z,3.00
2023-04-24T13:24:53.841Z,2.30
2023-04-24T13:27:21.907Z,2.87
2023-04-24T13:29:49.648Z,2.80
2023-04-24T13:32:17.569Z,2.27
2023-04-24T13:34:46.760Z,3.00
2023-04-24T13:37:14.406Z,2.20
2023-04-24T13:39:43.088Z,2.57
2023-04-24T13:42:10.804Z,2.53
2023-04-24T13:44:38.679Z,2.40
2023-04-24T13:47:06.711Z,2.73
2023-04-24T13:49:34.617Z,2.10
2023-04-24T13:52:04.471Z,1.70
2023-04-24T13:54:32.059Z,2.30
2023-04-24T13:56:59.994Z,2.33
2023-04-24T13:59:27.889Z,2.67
2023-04-24T14:01:55.772Z,2.00
2023-04-24T14:04:23.745Z,2.80
2023-04-24T14:06:52.002Z,2.67
2023-04-24T14:09:20.938Z,2.60
2023-04-24T14:11:48.700Z,2.47
2023-04-24T14:14:17.185Z,2.80
2023-04-24T14:16:44.914Z,2.30
2023-04-24T14:19:12.502Z,2.50
2023-04-24T14:21:40.278Z,2.40
2023-04-24T14:24:17.925Z,3.07
2023-04-24T14:26:48.215Z,2.60
2023-04-24T14:29:16.217Z,2.20
2023-04-24T14:31:44.116Z,2.53
2023-04-24T14:34:12.870Z,2.60
2023-04-24T14:36:41.075Z,2.03
2023-04-24T14:39:12.131Z,2.83
2023-04-24T14:41:47.292Z,3.33
2023-04-24T14:44:16.576Z,2.50
2023-04-24T14:47:00.303Z,2.47
2023-04-24T14:49:28.474Z,2.50
2023-04-24T14:51:56.437Z,2.80
2023-04-24T14:54:24.841Z,2.50
2023-04-24T14:56:52.687Z,2.33
2023-04-24T14:59:21.735Z,2.40
2023-04-24T15:01:49.579Z,2.90
2023-04-24T15:04:17.894Z,2.50
2023-04-24T15:06:48.013Z,2.57
2023-04-24T15:09:15.776Z,2.77
2023-04-24T15:11:43.901Z,3.50
2023-04-24T15:14:12.332Z,2.53
2023-04-24T15:16:41.708Z,2.70
2023-04-24T15:19:10.174Z,2.50
2023-04-24T15:21:38.753Z,2.80
2023-04-24T15:24:07.025Z,2.20
2023-04-24T15:26:34.899Z,2.27
2023-04-24T15:29:02.694Z,2.40
2023-04-24T15:31:30.935Z,2.47
2023-04-24T15:34:00.011Z,2.40
2023-04-24T15:36:29.488Z,2.70
2023-04-24T15:38:57.044Z,3.50
2023-04-24T15:41:24.755Z,2.70
2023-04-24T15:43:52.469Z,2.83
2023-04-24T15:46:20.100Z,2.60
2023-04-24T15:48:47.790Z,2.37
2023-04-24T15:51:16.886Z,2.47
2023-04-24T15:53:44.549Z,2.43
2023-04-24T15:56:12.260Z,2.70
2023-04-24T15:58:39.998Z,2.43
2023-04-24T16:01:07.821Z,2.27
2023-04-24T16:03:36.052Z,2.77
2023-04-24T16:06:04.127Z,2.30
2023-04-24T16:08:33.036Z,2.70
2023-04-24T16:11:00.660Z,2.90
2023-04-24T16:13:29.049Z,2.53
2023-04-24T16:15:56.794Z,2.60
2023-04-24T16:18:24.544Z,2.67
2023-04-24T16:20:52.311Z,2.70
2023-04-24T16:23:19.886Z,2.30
2023-04-24T16:25:48.906Z,2.30
2023-04-24T16:28:17.004Z,2.30
2023-04-24T16:30:44.806Z,2.60
2023-04-24T16:33:12.477Z,2.80
2023-04-24T16:35:47.770Z,2.70
2023-04-24T16:38:19.392Z,2.73
2023-04-24T16:41:11.221Z,2.50
2023-04-24T16:43:39.261Z,2.60
2023-04-24T16:46:11.129Z,2.33
2023-04-24T16:48:40.064Z,2.40
2023-04-24T16:51:07.805Z,2.47
2023-04-24T16:53:36.008Z,3.13
2023-04-24T16:56:05.279Z,2.70
2023-04-24T16:58:33.061Z,2.30
2023-04-24T17:01:00.727Z,2.90
2023-04-24T17:03:28.671Z,2.47
2023-04-24T17:05:57.613Z,2.27
2023-04-24T17:08:25.628Z,3.00
2023-04-24T17:10:54.003Z,2.80
2023-04-24T17:13:22.924Z,2.93
2023-04-24T17:15:50.718Z,2.77
2023-04-24T17:18:18.759Z,3.00
2023-04-24T17:20:46.347Z,2.37
2023-04-24T17:23:16.743Z,2.20
2023-04-24T17:25:44.823Z,2.57
2023-04-24T17:28:21.526Z,2.70
2023-04-24T17:30:50.841Z,2.80
2023-04-24T17:33:18.608Z,2.70
2023-04-24T17:35:47.997Z,2.23
2023-04-24T17:38:16.131Z,2.50
2023-04-24T17:40:44.626Z,2.50
2023-04-24T17:43:12.542Z,2.87
2023-04-24T17:45:40.639Z,1.93
2023-04-24T17:48:09.726Z,2.70
2023-04-24T17:50:37.500Z,2.57
2023-04-24T17:53:05.265Z,2.40
2023-04-24T17:55:34.353Z,2.70
2023-04-24T17:58:03.009Z,2.67
2023-04-24T18:00:31.542Z,2.50
2023-04-24T18:03:01.540Z,2.93
2023-04-24T18:05:34.911Z,2.50
2023-04-24T18:08:06.098Z,2.70
2023-04-24T18:10:36.360Z,3.40
2023-04-24T18:13:09.528Z,2.90
2023-04-24T18:15:42.531Z,2.93
2023-04-24T18:18:11.543Z,2.90
2023-04-24T18:20:40.718Z,2.23
2023-04-24T18:23:10.448Z,2.40
2023-04-24T18:25:41.156Z,2.23
2023-04-24T18:28:08.919Z,2.40
2023-04-24T18:30:36.884Z,2.53
2023-04-24T18:33:05.614Z,2.10
2023-04-24T18:35:34.954Z,2.37
2023-04-24T18:38:05.757Z,2.60
2023-04-24T18:40:35.296Z,2.23
2023-04-24T18:43:05.488Z,3.13
2023-04-24T18:45:33.544Z,2.50
2023-04-24T18:48:01.475Z,2.70
2023-04-24T18:50:31.769Z,2.90
2023-04-24T18:52:59.666Z,2.53
2023-04-24T18:55:28.786Z,2.50
2023-04-24T18:57:56.483Z,3.20
2023-04-24T19:00:24.161Z,2.70
2023-04-24T19:02:54.712Z,3.23
2023-04-24T19:05:22.430Z,2.60
2023-04-24T19:07:50.688Z,2.53
2023-04-24T19:10:18.496Z,2.70
2023-04-24T19:12:56.381Z,2.60
2023-04-24T19:15:24.581Z,2.50
2023-04-24T19:17:52.561Z,2.90
2023-04-24T19:20:20.768Z,3.20
2023-04-24T19:22:48.643Z,3.30
2023-04-24T19:25:16.851Z,3.37
2023-04-24T19:27:44.707Z,1.90
2023-04-24T19:30:14.398Z,1.83
2023-04-24T19:32:48.057Z,1.83
2023-04-24T19:35:19.045Z,2.10
2023-04-24T19:37:48.600Z,1.90
2023-04-24T19:40:16.463Z,2.07
2023-04-24T19:42:44.828Z,1.80
2023-04-24T19:45:14.371Z,1.90
2023-04-24T19:47:43.722Z,2.00
2023-04-24T19:50:11.854Z,2.33
2023-04-24T19:52:39.766Z,2.40
2023-04-24T19:55:09.115Z,2.43
2023-04-24T19:57:37.406Z,2.40
2023-04-24T20:00:08.082Z,2.53
2023-04-24T20:02:41.349Z,2.83
2023-04-24T20:05:10.823Z,2.00
2023-04-24T20:07:38.594Z,2.37
2023-04-24T20:10:08.398Z,2.20
2023-04-24T20:12:36.363Z,3.30
2023-04-24T20:15:04.794Z,3.20
2023-04-24T20:17:32.466Z,2.73
2023-04-24T20:20:01.508Z,2.60
2023-04-24T20:22:29.138Z,3.40
2023-04-24T20:24:56.869Z,2.80
2023-04-24T20:27:24.582Z,2.90
2023-04-24T20:29:52.258Z,2.73
2023-04-24T20:32:21.007Z,2.33
2023-04-24T20:34:48.730Z,2.90
2023-04-24T20:37:17.649Z,2.90
2023-04-24T20:39:46.236Z,3.10
2023-04-24T20:42:13.904Z,3.23
2023-04-24T20:44:41.524Z,3.27
2023-04-24T20:47:09.866Z,3.80
2023-04-24T20:49:37.586Z,3.10
2023-04-24T20:52:05.320Z,3.30
2023-04-24T20:54:34.347Z,3.10
2023-04-24T20:57:03.743Z,3.00
2023-04-24T20:59:31.619Z,3.50
2023-04-24T21:01:59.254Z,3.27
2023-04-24T21:04:26.898Z,3.70
2023-04-24T21:06:54.795Z,3.10
2023-04-24T21:09:22.469Z,3.80
2023-04-24T21:11:51.409Z,3.93
2023-04-24T21:14:19.018Z,3.60
2023-04-24T21:16:46.986Z,4.30
2023-04-24T21:19:14.613Z,4.50
2023-04-24T21:21:42.550Z,4.27
2023-04-24T21:24:10.273Z,4.10
2023-04-24T21:26:37.941Z,4.50
2023-04-24T21:29:09.715Z,4.30
2023-04-24T21:31:37.853Z,4.87
2023-04-24T21:34:05.842Z,4.90
2023-04-24T21:36:33.527Z,4.40
2023-04-24T21:39:01.304Z,3.97
2023-04-24T21:41:29.249Z,4.20
2023-04-24T21:43:57.083Z,4.10
2023-04-24T21:46:26.410Z,3.80
2023-04-24T21:48:54.146Z,3.93
2023-04-24T21:51:21.850Z,3.73
2023-04-24T21:53:49.962Z,3.63
2023-04-24T21:56:18.184Z,3.70
2023-04-24T21:58:46.858Z,3.80
2023-04-24T22:01:15.609Z,4.20
2023-04-24T22:03:44.810Z,3.40
2023-04-24T22:06:12.515Z,3.63
2023-04-24T22:08:40.129Z,4.03
2023-04-24T22:11:19.908Z,3.60
2023-04-24T22:13:54.135Z,3.83
2023-04-24T22:16:23.671Z,3.67
2023-04-24T22:18:55.164Z,3.80
2023-04-24T22:21:23.497Z,3.83
2023-04-24T22:23:51.561Z,3.70
2023-04-24T22:26:19.604Z,4.27
2023-04-24T22:28:48.310Z,3.63
2023-04-24T22:31:16.457Z,4.37
2023-04-24T22:33:47.329Z,4.63
2023-04-24T22:36:16.909Z,4.37
2023-04-24T22:38:44.599Z,4.00
2023-04-24T22:41:12.386Z,4.57
2023-04-24T22:43:40.233Z,3.63
2023-04-24T22:46:07.820Z,4.80
2023-04-24T22:48:36.135Z,5.10
2023-04-24T22:51:03.774Z,5.27
2023-04-24T22:53:32.817Z,5.37
2023-04-24T22:56:01.069Z,5.10
2023-04-24T22:58:29.417Z,6.43
2023-04-24T23:00:57.059Z,5.50
2023-04-24T23:03:25.217Z,5.30
2023-04-24T23:05:52.907Z,6.40
2023-04-24T23:08:20.444Z,5.97
2023-04-24T23:10:49.611Z,5.33
2023-04-24T23:13:17.376Z,5.87
2023-04-24T23:15:45.281Z,6.20
2023-04-24T23:18:12.866Z,6.20
2023-04-24T23:20:40.719Z,5.90
2023-04-24T23:23:08.280Z,6.17
2023-04-24T23:25:35.834Z,5.50
2023-04-24T23:28:05.090Z,5.93
2023-04-24T23:30:32.942Z,6.27
2023-04-24T23:33:00.560Z,5.80
2023-04-24T23:35:28.377Z,5.23
2023-04-24T23:37:56.627Z,6.30
2023-04-24T23:40:24.563Z,6.27
2023-04-24T23:43:03.635Z,6.03
2023-04-24T23:45:36.019Z,6.40
2023-04-24T23:48:04.600Z,5.60
2023-04-24T23:50:32.478Z,5.53
2023-04-24T23:53:00.191Z,5.50
2023-04-24T23:55:27.992Z,5.40
2023-04-24T23:57:55.592Z,5.70
